OIZJ  Jask  Airport

Jask, Iran

Add Bookmark
ICAO OIZJ
Type Airport
Status Operational
Latitude
25° 39' 12" N
25.653601
Longitude
57° 47' 57" E
57.799301
Local (DST + 5) UTC (GMT + 4)
May 25, 2015 05:42 May 25, 2015 13:12
Sunrise-Sunset Local UTC
Begin Civil Twilight 05:22 00:52
Sunrise 05:47 01:17
Sunset 07:23 14:53
End Civil Twilight 07:48 15:18
VFR
VFR
MVFR
MVFR
IFR
VFR
LIFR
VFR
Unknown
Unavailable

Current Weather

METAR Observed IFR
OIZJ 251200Z 25008KT 4000 HZ NSC 35/25 Q1001 Mon, May 25, 2015 @ 12:00 UTC
(1 Hour, 12 Minutes ago)
Instrument Flight Rules
Wind Visibility Conditions
250° at 8 knots (15 kph) 4,007 m
  • Haze
Temperatures Readings Precipitation
Current Temp
35°C
95°F
Dewpoint
25°C
77°F
Heat Index
43°C
110°
Humidity 56%
Altimeter 29.56" Hg
Sea Level Pressure 1,001 mb
Field Elevation
4 m
13 ft
None Recorded
-
-

CheckWX.com is intended as a tool to help pilots better visualize weather data. It is not intended as a substitute for an official weather briefing obtained from a Flight Service Station. CheckWX.com does not meet the FAA requirements for an official pre-flight weather briefing. Therefore, it's important that pilots still call and obtain an official FSS pre-flight weather briefing.

© 2007-2015 CheckWX.com
13:12:36 UTC